Time;durP1;ratioP1;P1;durP2;ratioP2;P2;SDS_P1;SDS_P2;PMS_P1;PMS_P2;Temp;Humidity;BMP_temperature;BMP_pressure;BME280_temperature;BME280_humidity;BME280_pressure;Samples;Min_cycle;Max_cycle;Signal;HPM_P1;HPM_P2
2022/07/16 00:01:36;;;;;;;16.35;11.15;;;28.10;99.90;;;;;;4159292;28;20428;-66
2022/07/16 00:03:43;;;;;;;16.48;10.57;;;28.10;99.90;;;;;;4124799;28;20691;-66
2022/07/16 00:05:50;;;;;;;16.00;10.45;;;28.20;99.90;;;;;;4159667;28;20107;-66
2022/07/16 00:07:54;;;;;;;16.40;9.88;;;28.30;99.90;;;;;;4160428;28;20045;-66
2022/07/16 00:09:59;;;;;;;15.50;9.60;;;28.40;99.90;;;;;;4160489;28;20037;-66
2022/07/16 00:12:05;;;;;;;14.48;9.80;;;28.40;99.90;;;;;;4160359;28;20053;-66
2022/07/16 00:14:11;;;;;;;13.10;9.80;;;28.50;99.90;;;;;;4160760;28;20048;-68
2022/07/16 00:16:18;;;;;;;17.33;9.60;;;28.50;99.90;;;;;;4160107;28;20073;-66
2022/07/16 00:20:40;;;;;;;25.73;12.23;;;28.50;99.90;;;;;;4158291;28;20681;-65
2022/07/16 00:22:47;;;;;;;25.60;13.25;;;28.40;99.90;;;;;;4143403;28;20472;-65
2022/07/16 00:24:52;;;;;;;23.60;12.27;;;28.50;99.90;;;;;;4159840;28;20049;-66
2022/07/16 00:26:56;;;;;;;18.70;11.90;;;28.40;99.90;;;;;;4155945;28;20132;-65
2022/07/16 00:29:03;;;;;;;19.95;11.20;;;28.50;99.90;;;;;;4160100;28;20567;-66
2022/07/16 00:31:07;;;;;;;19.33;10.27;;;28.40;99.90;;;;;;4157567;28;20048;-66
2022/07/16 00:33:12;;;;;;;15.55;10.13;;;28.50;99.90;;;;;;4159671;28;20053;-63
2022/07/16 00:35:18;;;;;;;16.05;9.23;;;28.60;99.90;;;;;;4159711;28;20770;-64
2022/07/16 00:37:23;;;;;;;13.95;8.55;;;28.60;99.90;;;;;;4159637;28;20287;-64
2022/07/16 00:39:29;;;;;;;16.08;8.90;;;28.50;99.90;;;;;;4160387;28;20126;-64
2022/07/16 00:41:35;;;;;;;13.40;8.38;;;28.60;99.90;;;;;;4160872;28;20415;-64
2022/07/16 00:43:47;;;;;;;16.15;8.15;;;28.60;99.90;;;;;;4161372;28;20041;-64
2022/07/16 00:45:54;;;;;;;13.23;9.00;;;28.60;99.90;;;;;;4158823;28;20064;-64
2022/07/16 00:47:59;;;;;;;13.43;8.07;;;28.70;99.90;;;;;;4158625;28;20128;-64
2022/07/16 00:50:06;;;;;;;11.68;7.75;;;28.80;99.90;;;;;;4160036;28;20099;-64
2022/07/16 00:52:12;;;;;;;13.80;8.60;;;28.80;99.90;;;;;;4172107;28;20155;-63
2022/07/16 00:54:20;;;;;;;14.70;7.55;;;28.80;99.90;;;;;;4159480;28;20048;-64
2022/07/16 00:56:25;;;;;;;12.80;8.02;;;28.80;99.90;;;;;;4154269;28;20041;-64
2022/07/16 00:58:32;;;;;;;12.13;8.13;;;28.80;99.90;;;;;;4157565;28;20052;-64
2022/07/16 01:00:38;;;;;;;10.82;7.65;;;28.90;99.90;;;;;;4160317;28;20732;-67
2022/07/16 01:02:43;;;;;;;11.93;7.95;;;29.00;99.90;;;;;;4161065;28;20189;-64
2022/07/16 01:04:49;;;;;;;9.10;7.20;;;29.10;99.90;;;;;;4159698;28;20053;-64
2022/07/16 01:06:55;;;;;;;12.27;7.78;;;29.20;99.90;;;;;;4160528;28;20747;-64
2022/07/16 01:09:00;;;;;;;10.82;7.10;;;29.20;99.90;;;;;;4141226;28;20057;-64
2022/07/16 01:11:08;;;;;;;13.68;7.85;;;29.30;99.90;;;;;;4157730;28;20065;-64
2022/07/16 01:13:14;;;;;;;8.80;7.20;;;29.40;99.90;;;;;;4160147;28;20465;-64
2022/07/16 01:15:19;;;;;;;12.50;7.30;;;29.50;99.90;;;;;;4158218;28;20041;-64
2022/07/16 01:17:24;;;;;;;12.93;8.05;;;29.60;99.90;;;;;;4159162;28;20432;-64
2022/07/16 01:19:29;;;;;;;14.68;7.43;;;29.50;99.90;;;;;;4161174;28;20136;-64
2022/07/16 01:21:38;;;;;;;11.18;7.18;;;29.60;99.90;;;;;;4158586;28;20038;-63
2022/07/16 01:23:45;;;;;;;13.05;7.32;;;29.60;99.90;;;;;;4160405;28;20145;-65
2022/07/16 01:25:50;;;;;;;10.55;6.35;;;29.60;99.90;;;;;;4159417;28;20403;-65
2022/07/16 01:27:55;;;;;;;9.57;7.10;;;29.70;99.90;;;;;;4159906;28;20049;-65
2022/07/16 01:29:59;;;;;;;12.73;6.25;;;29.80;99.90;;;;;;4160155;28;20573;-65
2022/07/16 01:32:05;;;;;;;10.65;6.28;;;29.90;99.90;;;;;;4160324;28;20717;-65
2022/07/16 01:36:28;;;;;;;9.85;6.10;;;29.90;99.90;;;;;;4160448;28;20049;-65
2022/07/16 01:38:36;;;;;;;11.50;6.10;;;30.10;99.90;;;;;;4158257;28;20124;-65
2022/07/16 01:40:41;;;;;;;10.50;6.30;;;30.20;99.90;;;;;;4160612;28;20449;-65
2022/07/16 01:42:48;;;;;;;9.95;6.00;;;30.20;99.90;;;;;;4160132;28;20033;-65
2022/07/16 01:44:55;;;;;;;12.15;6.25;;;30.20;99.90;;;;;;4159487;28;20056;-66
2022/07/16 01:47:00;;;;;;;10.73;6.22;;;30.20;99.90;;;;;;4160627;28;20053;-65
2022/07/16 01:49:05;;;;;;;9.77;6.10;;;30.30;99.90;;;;;;4163510;28;20111;-65
2022/07/16 01:51:09;;;;;;;12.18;6.68;;;30.30;99.90;;;;;;4164268;28;20063;-65
2022/07/16 01:53:14;;;;;;;12.90;6.38;;;30.40;99.90;;;;;;4162243;28;21461;-65
2022/07/16 01:55:24;;;;;;;10.68;5.82;;;30.50;99.90;;;;;;4162592;28;20445;-65
2022/07/16 01:57:37;;;;;;;11.80;6.20;;;30.50;99.90;;;;;;4162285;28;20045;-64
2022/07/16 01:59:42;;;;;;;10.15;6.15;;;30.60;99.90;;;;;;4153658;28;20053;-65
2022/07/16 02:01:49;;;;;;;10.40;5.28;;;30.60;99.90;;;;;;4159727;28;20519;-65
2022/07/16 02:03:53;;;;;;;9.75;5.05;;;30.70;99.90;;;;;;4161207;28;20454;-65
2022/07/16 02:05:58;;;;;;;10.25;5.32;;;30.70;99.90;;;;;;4162598;28;20095;-65
2022/07/16 02:08:05;;;;;;;10.43;5.72;;;30.70;99.90;;;;;;4162697;28;20719;-65
2022/07/16 02:10:14;;;;;;;7.57;5.15;;;30.90;99.90;;;;;;4161379;28;20053;-65
2022/07/16 02:12:19;;;;;;;9.45;5.32;;;30.90;99.90;;;;;;4161855;28;20447;-65
2022/07/16 02:14:25;;;;;;;9.10;5.35;;;30.90;99.90;;;;;;4161283;28;20461;-65
2022/07/16 02:16:32;;;;;;;9.07;5.10;;;31.00;99.90;;;;;;4160607;28;20038;-65
2022/07/16 02:18:37;;;;;;;10.52;5.43;;;31.10;99.90;;;;;;4162006;28;20072;-65
2022/07/16 02:20:44;;;;;;;8.73;4.80;;;31.10;99.90;;;;;;4161967;28;20041;-65
2022/07/16 02:22:52;;;;;;;10.60;5.43;;;31.20;99.90;;;;;;4146707;28;20124;-64
2022/07/16 02:24:57;;;;;;;10.30;5.78;;;31.20;99.90;;;;;;4146028;28;20058;-63
2022/07/16 02:27:04;;;;;;;9.00;5.57;;;31.20;99.90;;;;;;4163077;28;20103;-66
2022/07/16 02:29:11;;;;;;;12.32;4.90;;;31.20;99.90;;;;;;4161893;28;20579;-66
2022/07/16 02:31:15;;;;;;;9.07;4.90;;;31.20;99.90;;;;;;4162429;28;20055;-66
2022/07/16 02:33:22;;;;;;;6.10;4.80;;;31.20;99.90;;;;;;4162100;28;20041;-65
2022/07/16 02:35:29;;;;;;;8.93;4.88;;;31.30;99.90;;;;;;4141400;28;20401;-65
2022/07/16 02:37:34;;;;;;;9.57;4.80;;;31.30;99.90;;;;;;4167858;28;20162;-65
2022/07/16 02:39:39;;;;;;;9.55;4.38;;;31.50;99.90;;;;;;4161850;28;20558;-65
2022/07/16 02:41:45;;;;;;;8.02;4.65;;;31.60;99.90;;;;;;4144266;28;20520;-65
2022/07/16 02:43:50;;;;;;;9.15;4.25;;;31.70;99.90;;;;;;4162341;28;20073;-65
2022/07/16 02:45:56;;;;;;;6.60;4.68;;;31.80;99.90;;;;;;4162860;28;20412;-64
2022/07/16 02:48:03;;;;;;;10.27;4.65;;;31.80;99.90;;;;;;4162656;28;20108;-66
2022/07/16 02:50:08;;;;;;;8.55;4.43;;;31.90;99.90;;;;;;4162514;28;20045;-66
2022/07/16 02:52:15;;;;;;;6.53;4.00;;;32.00;99.90;;;;;;4163100;28;20528;-66
2022/07/16 02:54:22;;;;;;;9.35;4.60;;;32.00;99.90;;;;;;4162929;28;20068;-65
2022/07/16 02:56:26;;;;;;;8.57;4.70;;;32.10;99.90;;;;;;4162896;28;20144;-66
2022/07/16 02:58:33;;;;;;;7.72;4.50;;;32.10;99.90;;;;;;4161665;28;20041;-66
2022/07/16 03:00:40;;;;;;;7.70;4.53;;;32.30;99.90;;;;;;4158566;28;20467;-67
2022/07/16 03:02:44;;;;;;;7.47;4.55;;;32.40;99.90;;;;;;4161021;28;20052;-66
2022/07/16 03:04:51;;;;;;;7.47;4.53;;;32.50;99.90;;;;;;4162656;28;20308;-66
2022/07/16 03:06:57;;;;;;;10.00;4.57;;;32.50;99.90;;;;;;4143916;28;20240;-66
2022/07/16 03:09:02;;;;;;;9.63;4.28;;;32.50;99.90;;;;;;4162309;28;20456;-66
2022/07/16 03:11:08;;;;;;;7.20;4.40;;;32.30;99.90;;;;;;4162480;28;20045;-66
2022/07/16 03:13:15;;;;;;;6.57;4.03;;;32.30;99.90;;;;;;4167009;28;20048;-66
2022/07/16 03:15:19;;;;;;;8.40;4.00;;;32.20;99.90;;;;;;4177597;28;20037;-65
2022/07/16 03:17:26;;;;;;;8.25;4.30;;;32.20;99.90;;;;;;4178706;28;20052;-65
2022/07/16 03:19:33;;;;;;;10.93;4.78;;;32.10;99.90;;;;;;4179028;28;20106;-65
2022/07/16 03:21:37;;;;;;;10.90;4.93;;;32.00;99.90;;;;;;4170452;28;20053;-65
2022/07/16 03:23:42;;;;;;;8.32;4.80;;;32.00;99.90;;;;;;4162256;28;20136;-65
2022/07/16 03:25:49;;;;;;;8.43;4.40;;;32.20;99.90;;;;;;4161781;28;20058;-65
2022/07/16 03:27:53;;;;;;;8.15;4.40;;;32.40;99.90;;;;;;4162378;28;20140;-65
2022/07/16 03:29:58;;;;;;;6.95;3.83;;;32.60;99.90;;;;;;4169127;28;20091;-65
2022/07/16 03:32:05;;;;;;;5.60;3.90;;;32.80;99.90;;;;;;4178270;28;20068;-65
2022/07/16 03:34:10;;;;;;;7.07;4.25;;;32.90;99.90;;;;;;4178911;28;20088;-64
2022/07/16 03:36:14;;;;;;;7.10;3.60;;;33.00;99.90;;;;;;4169123;28;20046;-65
2022/07/16 03:40:36;;;;;;;7.72;3.95;;;33.20;99.90;;;;;;4162143;28;20087;-65
2022/07/16 03:42:43;;;;;;;8.18;3.90;;;33.20;99.30;;;;;;4162276;28;20128;-65
2022/07/16 03:44:50;;;;;;;7.97;4.43;;;33.00;99.40;;;;;;4161631;28;20531;-65
2022/07/16 03:46:54;;;;;;;10.50;4.30;;;32.90;99.90;;;;;;4160553;28;20107;-65
2022/07/16 03:48:59;;;;;;;8.55;4.18;;;32.80;99.90;;;;;;4162075;28;20081;-65
2022/07/16 03:51:06;;;;;;;7.95;3.70;;;32.50;99.90;;;;;;4127226;28;20104;-65
2022/07/16 03:53:13;;;;;;;5.50;3.50;;;32.60;99.90;;;;;;4162173;28;20504;-65
2022/07/16 03:55:19;;;;;;;8.40;3.85;;;32.60;99.90;;;;;;4161139;28;20049;-65
2022/07/16 03:57:26;;;;;;;5.75;3.80;;;32.50;99.90;;;;;;4159906;28;20073;-65
2022/07/16 03:59:31;;;;;;;8.75;4.25;;;32.50;99.90;;;;;;4157559;28;20594;-65
2022/07/16 04:01:35;;;;;;;7.25;3.78;;;32.40;99.90;;;;;;4161056;28;20037;-65
2022/07/16 04:03:40;;;;;;;8.98;4.40;;;32.60;99.90;;;;;;4160154;28;20508;-65
2022/07/16 04:05:45;;;;;;;5.82;3.75;;;32.90;99.90;;;;;;4160938;28;20075;-65
2022/07/16 04:07:50;;;;;;;8.57;4.20;;;33.00;99.90;;;;;;4160847;28;20466;-66
2022/07/16 04:09:56;;;;;;;7.55;4.00;;;33.10;99.90;;;;;;4160488;28;20061;-66
2022/07/16 04:12:01;;;;;;;5.70;3.55;;;33.10;99.90;;;;;;4159413;28;20062;-66
2022/07/16 04:14:07;;;;;;;6.97;3.92;;;33.00;99.90;;;;;;4160576;28;20054;-65
2022/07/16 04:16:14;;;;;;;7.55;4.00;;;32.90;99.90;;;;;;4160152;28;20061;-66
2022/07/16 04:18:20;;;;;;;7.60;3.58;;;32.80;99.90;;;;;;4158429;28;20041;-66
2022/07/16 04:20:25;;;;;;;6.63;3.85;;;32.60;99.90;;;;;;4160656;28;20053;-66
2022/07/16 04:22:30;;;;;;;7.63;4.00;;;32.40;99.90;;;;;;4160630;28;20427;-66
2022/07/16 04:24:34;;;;;;;10.45;3.78;;;32.30;99.90;;;;;;4160596;28;20099;-66
2022/07/16 04:26:39;;;;;;;5.95;3.70;;;32.30;99.90;;;;;;4154893;28;20049;-65
2022/07/16 04:28:43;;;;;;;9.57;4.38;;;32.30;99.90;;;;;;4158070;28;20045;-67
2022/07/16 04:30:48;;;;;;;6.68;3.40;;;32.30;99.90;;;;;;4142658;28;20034;-67
2022/07/16 04:32:55;;;;;;;7.82;3.90;;;32.30;99.90;;;;;;4160889;28;20053;-67
2022/07/16 04:35:02;;;;;;;10.75;4.00;;;32.30;99.90;;;;;;4158273;28;20132;-67
2022/07/16 04:37:07;;;;;;;6.45;3.88;;;32.30;99.90;;;;;;4159834;28;20041;-66
2022/07/16 04:39:14;;;;;;;8.35;4.10;;;32.40;99.90;;;;;;4160350;28;20474;-67
2022/07/16 04:41:20;;;;;;;12.63;3.58;;;32.50;99.90;;;;;;4139421;28;20042;-66
2022/07/16 04:43:27;;;;;;;6.70;3.47;;;32.70;99.90;;;;;;4160706;28;20049;-66
2022/07/16 04:45:33;;;;;;;7.20;3.58;;;33.00;99.90;;;;;;4159953;28;20371;-66
2022/07/16 04:47:39;;;;;;;6.50;3.50;;;33.20;99.50;;;;;;4158213;28;20504;-66
2022/07/16 04:49:43;;;;;;;9.13;3.80;;;33.40;99.80;;;;;;4159915;28;20523;-64
2022/07/16 04:51:53;;;;;;;7.93;4.22;;;33.60;99.10;;;;;;4159742;28;20373;-65
2022/07/16 04:54:01;;;;;;;6.47;3.05;;;33.60;98.70;;;;;;4158431;28;20136;-65
2022/07/16 04:56:07;;;;;;;7.38;3.08;;;33.80;97.80;;;;;;4159314;28;20080;-65
2022/07/16 04:58:11;;;;;;;6.13;3.20;;;34.00;97.40;;;;;;4160257;28;20049;-65
2022/07/16 05:00:16;;;;;;;10.48;3.90;;;34.10;96.70;;;;;;4159681;28;20115;-65
2022/07/16 05:04:37;;;;;;;7.55;3.40;;;34.20;97.40;;;;;;4149921;28;20068;-67
2022/07/16 05:06:42;;;;;;;8.25;3.50;;;34.50;96.80;;;;;;4151423;28;20118;-66
2022/07/16 05:08:46;;;;;;;6.28;3.15;;;34.50;96.90;;;;;;4160280;28;20045;-65
2022/07/16 05:10:51;;;;;;;6.88;3.10;;;34.60;96.70;;;;;;4159824;28;20042;-66
2022/07/16 05:12:56;;;;;;;6.88;3.00;;;34.60;96.40;;;;;;4160219;28;20106;-65
2022/07/16 05:15:01;;;;;;;7.28;3.55;;;34.50;96.10;;;;;;4158133;28;20081;-66
2022/07/16 05:17:06;;;;;;;7.63;3.17;;;34.50;96.30;;;;;;4179722;28;20044;-65
2022/07/16 05:19:11;;;;;;;6.18;2.80;;;34.60;96.40;;;;;;4143899;28;20048;-66
2022/07/16 05:21:15;;;;;;;6.00;2.92;;;34.60;95.00;;;;;;4144319;28;20048;-65
2022/07/16 05:23:26;;;;;;;3.90;2.42;;;34.70;95.20;;;;;;4154518;28;20049;-66
2022/07/16 05:25:30;;;;;;;7.63;3.38;;;34.80;95.10;;;;;;4157678;28;20045;-65
2022/07/16 05:27:35;;;;;;;6.70;3.30;;;34.90;94.40;;;;;;4159977;28;20516;-65
2022/07/16 05:29:41;;;;;;;4.90;2.88;;;34.50;94.10;;;;;;4152615;28;20042;-65
2022/07/16 05:31:48;;;;;;;7.45;3.22;;;34.50;95.30;;;;;;4159134;28;20041;-65
2022/07/16 05:33:53;;;;;;;6.18;2.90;;;34.50;95.20;;;;;;4158021;28;20132;-65
2022/07/16 05:35:59;;;;;;;6.57;3.10;;;34.60;94.50;;;;;;4161734;28;20049;-65
2022/07/16 05:38:18;;;;;;;5.22;2.88;;;34.80;94.60;;;;;;4159591;28;20773;-65
2022/07/16 05:40:23;;;;;;;5.82;3.20;;;34.90;94.90;;;;;;4160233;28;20041;-66
2022/07/16 05:42:28;;;;;;;5.35;3.40;;;35.00;94.90;;;;;;4158077;28;20034;-65
2022/07/16 05:44:35;;;;;;;7.65;3.50;;;35.10;94.20;;;;;;4159480;28;20377;-66
2022/07/16 05:46:47;;;;;;;3.67;2.80;;;35.20;94.10;;;;;;4122341;28;20047;-64
2022/07/16 05:48:53;;;;;;;8.48;2.90;;;35.20;93.60;;;;;;4160269;28;20107;-63
2022/07/16 05:50:59;;;;;;;7.72;3.03;;;35.00;94.10;;;;;;4159988;28;20202;-63
2022/07/16 05:53:04;;;;;;;5.60;2.58;;;34.90;94.20;;;;;;4159849;28;20296;-64
2022/07/16 05:55:11;;;;;;;6.63;2.38;;;35.10;93.60;;;;;;4159868;28;20049;-63
2022/07/16 05:57:18;;;;;;;6.15;2.22;;;35.20;92.90;;;;;;4158598;28;20439;-63
2022/07/16 05:59:23;;;;;;;5.60;2.50;;;35.30;91.90;;;;;;4159619;28;20077;-63
2022/07/16 06:01:30;;;;;;;5.45;2.50;;;35.40;92.00;;;;;;4159547;28;20049;-63
2022/07/16 06:03:37;;;;;;;3.92;2.20;;;35.50;92.30;;;;;;4159375;28;20508;-63
2022/07/16 06:05:42;;;;;;;4.78;2.42;;;35.70;91.70;;;;;;4138981;28;20042;-63
2022/07/16 06:07:48;;;;;;;7.10;2.45;;;35.80;91.40;;;;;;4159419;28;20043;-63
2022/07/16 06:09:55;;;;;;;3.55;2.00;;;35.70;91.00;;;;;;4159370;28;20195;-62
2022/07/16 06:11:59;;;;;;;4.72;2.17;;;35.70;90.50;;;;;;4159571;28;20041;-62
2022/07/16 06:14:06;;;;;;;5.95;2.28;;;35.30;90.50;;;;;;4154098;28;20088;-62
2022/07/16 06:16:13;;;;;;;4.93;2.72;;;35.00;91.40;;;;;;4156213;28;20321;-62
2022/07/16 06:18:18;;;;;;;4.65;2.40;;;34.90;92.50;;;;;;4159245;28;20045;-64
2022/07/16 06:20:22;;;;;;;10.90;2.42;;;35.00;92.10;;;;;;4151564;28;20052;-63
2022/07/16 06:22:30;;;;;;;5.05;2.40;;;35.30;91.90;;;;;;4124377;28;20104;-63
2022/07/16 06:24:34;;;;;;;4.68;2.10;;;35.40;91.50;;;;;;4159363;28;20125;-63
2022/07/16 06:26:46;;;;;;;2.95;1.98;;;35.70;91.20;;;;;;4159087;28;20435;-64
2022/07/16 06:28:51;;;;;;;4.05;2.00;;;35.80;90.90;;;;;;4152622;28;20052;-64
2022/07/16 06:30:55;;;;;;;5.53;2.20;;;36.00;90.40;;;;;;4158847;28;20045;-64
2022/07/16 06:33:00;;;;;;;4.68;2.63;;;36.20;90.40;;;;;;4159377;28;20103;-64
2022/07/16 06:35:05;;;;;;;7.28;2.60;;;36.20;90.50;;;;;;4160029;28;20597;-65
2022/07/16 06:37:10;;;;;;;5.07;2.40;;;36.20;90.30;;;;;;4162595;28;20045;-64
2022/07/16 06:39:16;;;;;;;4.07;2.20;;;36.20;90.50;;;;;;4162354;28;20045;-64
2022/07/16 06:41:23;;;;;;;4.07;2.17;;;36.30;90.40;;;;;;4162151;28;20049;-64
2022/07/16 06:43:27;;;;;;;4.68;2.72;;;36.20;90.40;;;;;;4161204;28;20455;-65
2022/07/16 06:45:34;;;;;;;4.95;2.50;;;35.90;90.40;;;;;;4158738;28;20041;-64
2022/07/16 06:47:39;;;;;;;3.72;2.33;;;35.40;90.70;;;;;;4161673;28;20049;-63
2022/07/16 06:49:43;;;;;;;3.20;2.03;;;35.30;91.20;;;;;;4156785;28;20049;-64
2022/07/16 06:51:50;;;;;;;5.72;2.00;;;35.60;90.70;;;;;;4159794;28;20049;-64
2022/07/16 06:53:54;;;;;;;6.13;2.10;;;35.70;90.50;;;;;;4166965;28;20068;-64
2022/07/16 06:56:00;;;;;;;4.65;1.85;;;35.90;89.80;;;;;;4168078;28;20037;-64
2022/07/16 06:58:07;;;;;;;3.00;1.73;;;35.60;90.10;;;;;;4164858;28;20409;-64
2022/07/16 07:00:12;;;;;;;5.40;1.88;;;35.50;90.80;;;;;;4161315;28;20057;-63
2022/07/16 07:02:16;;;;;;;3.75;1.80;;;35.60;90.80;;;;;;4161537;28;21436;-64
2022/07/16 07:04:29;;;;;;;;;;;35.80;90.60;;;;;;4161026;28;20052;-63
2022/07/16 07:06:36;;;;;;;4.00;1.65;;;36.10;90.20;;;;;;4161323;28;20410;-64
2022/07/16 07:08:41;;;;;;;5.03;1.50;;;36.30;89.70;;;;;;4161587;28;20523;-64
2022/07/16 07:10:52;;;;;;;4.05;1.60;;;36.40;88.10;;;;;;4161461;28;20492;-65
2022/07/16 07:12:59;;;;;;;4.55;1.80;;;36.30;87.60;;;;;;4124488;28;20058;-64
2022/07/16 07:15:05;;;;;;;3.00;1.30;;;36.50;87.60;;;;;;4159033;28;20046;-64
2022/07/16 07:17:09;;;;;;;4.05;1.63;;;36.60;87.40;;;;;;4160385;28;20504;-65
2022/07/16 07:19:14;;;;;;;4.82;1.75;;;36.80;88.10;;;;;;4160317;28;20045;-65
2022/07/16 07:21:18;;;;;;;2.47;1.80;;;36.90;87.60;;;;;;4159258;28;20483;-65
2022/07/16 07:23:23;;;;;;;2.83;1.75;;;36.60;87.90;;;;;;4160734;28;20048;-64
2022/07/16 07:25:27;;;;;;;3.17;1.65;;;36.50;86.60;;;;;;4159319;28;20508;-64
2022/07/16 07:27:32;;;;;;;4.78;1.75;;;36.60;86.20;;;;;;4157843;28;20492;-65
2022/07/16 07:29:37;;;;;;;3.85;2.10;;;36.60;86.50;;;;;;4160475;28;20128;-64
2022/07/16 07:31:44;;;;;;;5.13;1.88;;;36.50;86.40;;;;;;4140706;28;20048;-63
2022/07/16 07:33:48;;;;;;;4.20;1.60;;;36.20;86.80;;;;;;4160213;28;20042;-64
2022/07/16 07:35:55;;;;;;;5.22;1.80;;;36.10;87.20;;;;;;4141256;28;20133;-65
2022/07/16 07:37:59;;;;;;;3.53;1.50;;;36.20;88.10;;;;;;4155624;28;20049;-65
2022/07/16 07:40:04;;;;;;;3.20;1.35;;;36.20;87.10;;;;;;4161011;28;20091;-64
2022/07/16 07:42:12;;;;;;;4.57;1.60;;;36.40;88.30;;;;;;4161249;28;20042;-64
2022/07/16 07:44:17;;;;;;;3.60;1.70;;;36.50;88.00;;;;;;4161438;28;20539;-64
2022/07/16 07:46:21;;;;;;;5.80;1.77;;;36.60;85.20;;;;;;4159137;28;20610;-64
2022/07/16 07:48:27;;;;;;;2.60;1.23;;;36.50;86.60;;;;;;4159913;28;20073;-65
2022/07/16 07:50:32;;;;;;;2.47;1.33;;;36.50;86.90;;;;;;4160340;28;20068;-64
2022/07/16 07:52:36;;;;;;;2.53;1.55;;;36.60;86.40;;;;;;4160279;28;20045;-65
2022/07/16 07:54:41;;;;;;;5.10;1.73;;;36.80;87.20;;;;;;4159514;28;20041;-65
2022/07/16 07:56:49;;;;;;;3.30;1.52;;;36.80;85.60;;;;;;4159866;28;20042;-65
2022/07/16 07:58:54;;;;;;;4.18;1.40;;;36.60;85.20;;;;;;4157295;28;20058;-64
2022/07/16 08:01:01;;;;;;;4.18;1.40;;;36.60;84.40;;;;;;4160059;28;20068;-64
2022/07/16 08:03:26;;;;;;;6.75;1.63;;;36.50;84.10;;;;;;4157804;28;20572;-64
2022/07/16 08:05:31;;;;;;;2.30;1.15;;;36.60;83.70;;;;;;4158489;28;20091;-63
2022/07/16 08:07:39;;;;;;;2.65;1.20;;;36.50;84.50;;;;;;4159857;28;20045;-64
2022/07/16 08:09:44;;;;;;;4.22;1.40;;;36.50;85.20;;;;;;4159289;28;20423;-65
2022/07/16 08:11:49;;;;;;;5.38;1.58;;;36.60;84.40;;;;;;4159974;28;20124;-64
2022/07/16 08:13:55;;;;;;;2.22;1.20;;;36.60;85.00;;;;;;4159070;28;20103;-64
2022/07/16 08:16:20;;;;;;;2.40;1.35;;;36.60;85.60;;;;;;4160487;28;20459;-63
2022/07/16 08:18:24;;;;;;;2.53;1.40;;;36.70;85.80;;;;;;4161019;28;20041;-64
2022/07/16 08:20:33;;;;;;;3.78;1.50;;;36.80;85.10;;;;;;4158846;28;20056;-64
2022/07/16 08:22:38;;;;;;;2.83;1.38;;;36.70;84.40;;;;;;4160861;28;20041;-64
2022/07/16 08:27:02;;;;;;;3.42;1.80;;;36.60;85.00;;;;;;4158784;28;20045;-63
2022/07/16 08:29:06;;;;;;;3.83;2.00;;;36.60;85.10;;;;;;4159073;28;20130;-62
2022/07/16 08:31:11;;;;;;;4.18;1.70;;;36.60;85.00;;;;;;4158587;28;20149;-63
2022/07/16 08:33:15;;;;;;;3.40;1.77;;;36.60;85.30;;;;;;4160589;28;20047;-63
2022/07/16 08:35:20;;;;;;;3.22;1.45;;;36.60;85.60;;;;;;4160382;28;20045;-63
2022/07/16 08:37:36;;;;;;;3.67;1.95;;;36.60;85.10;;;;;;4159815;28;20099;-62
2022/07/16 08:39:45;;;;;;;2.10;1.40;;;36.60;84.20;;;;;;4160255;28;20096;-62
2022/07/16 08:41:49;;;;;;;4.55;1.80;;;36.70;84.40;;;;;;4160453;28;20046;-62
2022/07/16 08:43:54;;;;;;;3.55;1.45;;;36.70;85.30;;;;;;4157527;28;20041;-63
2022/07/16 08:46:02;;;;;;;3.42;1.30;;;36.60;84.10;;;;;;4160255;28;20037;-63
2022/07/16 08:48:07;;;;;;;2.45;1.35;;;36.40;84.60;;;;;;4160293;28;20136;-63
2022/07/16 08:50:13;;;;;;;3.28;1.77;;;36.10;85.70;;;;;;4151999;28;20053;-63
2022/07/16 08:52:20;;;;;;;4.78;2.92;;;36.00;85.30;;;;;;4156105;28;20045;-64
2022/07/16 08:54:24;;;;;;;3.88;1.80;;;36.10;85.80;;;;;;4159590;28;20456;-63
2022/07/16 08:56:29;;;;;;;3.22;1.80;;;36.20;85.40;;;;;;4159458;28;20535;-64
2022/07/16 08:58:38;;;;;;;3.45;1.58;;;36.40;85.50;;;;;;4158423;28;20064;-64
2022/07/16 09:00:43;;;;;;;2.17;1.40;;;36.50;85.10;;;;;;4158810;28;20049;-62
2022/07/16 09:02:48;;;;;;;4.03;1.50;;;36.50;84.30;;;;;;4159223;28;20546;-63
2022/07/16 09:04:52;;;;;;;3.85;1.52;;;36.50;84.80;;;;;;4159123;28;20049;-64
2022/07/16 09:06:57;;;;;;;5.53;3.17;;;36.40;85.00;;;;;;4158517;28;20049;-63
2022/07/16 09:09:03;;;;;;;6.20;3.05;;;36.40;86.20;;;;;;4160240;28;20048;-63
2022/07/16 09:11:26;;;;;;;4.88;2.42;;;36.30;86.70;;;;;;4157307;28;20056;-63
2022/07/16 09:13:30;;;;;;;3.55;1.85;;;36.40;86.80;;;;;;4159967;28;20045;-63
2022/07/16 09:15:37;;;;;;;3.75;1.80;;;36.30;86.40;;;;;;4159361;28;20539;-63
2022/07/16 09:17:45;;;;;;;2.90;1.70;;;36.30;87.60;;;;;;4158004;28;20045;-63
2022/07/16 09:19:50;;;;;;;3.22;1.60;;;36.20;87.50;;;;;;4158811;28;20043;-64
2022/07/16 09:22:15;;;;;;;2.95;1.65;;;36.10;86.60;;;;;;4159912;28;20542;-63
2022/07/16 09:24:31;;;;;;;4.63;1.58;;;36.20;86.50;;;;;;4181429;28;20254;-62
2022/07/16 09:26:36;;;;;;;2.85;1.58;;;36.10;86.90;;;;;;4156498;28;20045;-63
2022/07/16 09:28:47;;;;;;;3.25;1.60;;;36.10;87.20;;;;;;4152578;28;20429;-64
2022/07/16 09:30:53;;;;;;;3.72;1.88;;;35.90;86.50;;;;;;4158155;28;20107;-64
2022/07/16 09:32:58;;;;;;;3.33;1.65;;;35.80;87.20;;;;;;4158097;28;20046;-63
2022/07/16 09:35:13;;;;;;;3.63;1.60;;;35.60;87.70;;;;;;4158987;28;20047;-64
2022/07/16 09:37:20;;;;;;;4.50;1.90;;;35.50;87.80;;;;;;4159004;28;20061;-63
2022/07/16 09:39:25;;;;;;;4.97;1.77;;;35.40;88.40;;;;;;4159271;28;20099;-63
2022/07/16 09:41:39;;;;;;;3.00;1.70;;;35.50;89.30;;;;;;4158405;28;20133;-62
2022/07/16 09:43:44;;;;;;;6.28;2.15;;;35.40;89.20;;;;;;4138255;28;20072;-63
2022/07/16 09:46:02;;;;;;;5.43;2.13;;;35.30;89.50;;;;;;4158007;28;20046;-63
2022/07/16 09:48:28;;;;;;;4.55;2.00;;;35.20;89.80;;;;;;4169521;28;20088;-63
2022/07/16 09:50:36;;;;;;;3.72;2.05;;;35.20;89.90;;;;;;4160115;28;20053;-63
2022/07/16 09:52:41;;;;;;;3.55;2.17;;;35.10;90.20;;;;;;4159130;28;20045;-63
2022/07/16 09:54:45;;;;;;;4.70;2.20;;;35.10;90.30;;;;;;4160295;28;20037;-63
2022/07/16 09:57:05;;;;;;;4.05;2.03;;;35.00;90.30;;;;;;4160082;28;20049;-62
2022/07/16 09:59:10;;;;;;;6.05;2.22;;;35.00;90.30;;;;;;4155324;28;20042;-62
2022/07/16 10:01:16;;;;;;;4.05;1.88;;;35.10;90.30;;;;;;4160617;28;20572;-63
2022/07/16 10:03:20;;;;;;;5.40;2.00;;;35.10;90.40;;;;;;4160000;28;20037;-62
2022/07/16 10:05:25;;;;;;;4.43;1.83;;;35.20;90.60;;;;;;4159866;28;20065;-63
2022/07/16 10:07:30;;;;;;;4.38;2.10;;;35.20;90.70;;;;;;4158518;28;20141;-63
2022/07/16 10:09:38;;;;;;;3.15;1.73;;;35.20;90.60;;;;;;4163052;28;20571;-62
2022/07/16 10:11:43;;;;;;;4.18;2.20;;;35.10;90.30;;;;;;4159933;28;20117;-63
2022/07/16 10:13:48;;;;;;;2.90;1.70;;;35.00;90.40;;;;;;4162429;28;20056;-62
2022/07/16 10:15:53;;;;;;;4.13;2.00;;;35.00;90.50;;;;;;4163610;28;20518;-62
2022/07/16 10:17:58;;;;;;;6.78;2.03;;;34.90;90.50;;;;;;4163580;28;20046;-62
2022/07/16 10:20:12;;;;;;;6.55;2.58;;;34.90;90.60;;;;;;4162994;28;20037;-63
2022/07/16 10:22:22;;;;;;;4.22;2.00;;;34.60;90.60;;;;;;4160835;28;20092;-63
2022/07/16 10:24:28;;;;;;;4.22;2.05;;;34.50;91.50;;;;;;4161158;28;20603;-63
2022/07/16 10:26:34;;;;;;;4.50;2.08;;;34.50;91.40;;;;;;4139764;28;20044;-62
2022/07/16 10:28:50;;;;;;;4.97;2.58;;;34.40;91.00;;;;;;4168358;28;20044;-63
2022/07/16 10:31:19;;;;;;;7.13;2.47;;;34.50;91.40;;;;;;4170264;28;20059;-63
2022/07/16 10:33:26;;;;;;;5.68;2.60;;;34.30;91.70;;;;;;4172015;28;20132;-63
2022/07/16 10:35:38;;;;;;;5.72;2.22;;;34.20;91.70;;;;;;4170106;28;20504;-63
2022/07/16 10:37:43;;;;;;;6.70;2.58;;;34.20;91.80;;;;;;4167505;28;20347;-63
2022/07/16 10:40:12;;;;;;;4.05;2.22;;;34.20;92.40;;;;;;4167504;28;20042;-63
2022/07/16 10:42:17;;;;;;;6.38;2.80;;;34.10;92.00;;;;;;4164695;28;20042;-63
2022/07/16 10:44:42;;;;;;;6.03;2.45;;;34.10;92.10;;;;;;4162676;28;20056;-64
2022/07/16 10:47:00;;;;;;;6.53;2.83;;;34.00;93.00;;;;;;4161762;28;20049;-63
2022/07/16 10:49:13;;;;;;;2.80;2.03;;;33.90;92.70;;;;;;4162124;28;20096;-63
2022/07/16 10:51:22;;;;;;;7.18;2.20;;;33.70;92.80;;;;;;4162588;28;20073;-62
2022/07/16 10:53:27;;;;;;;4.55;2.20;;;33.60;93.20;;;;;;4161059;28;20057;-63
2022/07/16 10:55:36;;;;;;;6.00;2.10;;;33.50;92.80;;;;;;4127969;28;20068;-63
2022/07/16 10:57:41;;;;;;;3.80;2.20;;;33.50;93.40;;;;;;4162225;28;20052;-63
2022/07/16 10:59:48;;;;;;;3.40;2.20;;;33.50;93.70;;;;;;4163180;28;20045;-63
2022/07/16 11:01:55;;;;;;;5.38;2.25;;;33.40;93.80;;;;;;4162982;28;20072;-63
2022/07/16 11:04:02;;;;;;;7.35;3.05;;;33.40;93.60;;;;;;4189120;28;20048;-63
2022/07/16 11:06:07;;;;;;;6.10;2.47;;;33.30;93.70;;;;;;4160560;28;20369;-63
2022/07/16 11:08:13;;;;;;;5.60;2.35;;;33.30;93.40;;;;;;4162889;28;20211;-63
2022/07/16 11:10:21;;;;;;;5.70;2.38;;;33.30;93.80;;;;;;4162802;28;20041;-63